sensor_id;sensor_type;location;lat;lon;timestamp;temperature;humidity
16663;DHT22;8445;51.270;9.434;2022-09-17T00:01:18;10.00;74.80
16663;DHT22;8445;51.270;9.434;2022-09-17T00:03:54;10.00;74.90
16663;DHT22;8445;51.270;9.434;2022-09-17T00:06:24;10.00;75.00
16663;DHT22;8445;51.270;9.434;2022-09-17T00:08:52;10.00;75.00
16663;DHT22;8445;51.270;9.434;2022-09-17T00:11:22;10.00;75.10
16663;DHT22;8445;51.270;9.434;2022-09-17T00:13:51;10.00;75.10
16663;DHT22;8445;51.270;9.434;2022-09-17T00:16:29;10.00;75.20
16663;DHT22;8445;51.270;9.434;2022-09-17T00:19:05;10.00;75.30
16663;DHT22;8445;51.270;9.434;2022-09-17T00:21:33;10.00;75.30
16663;DHT22;8445;51.270;9.434;2022-09-17T00:24:01;9.90;75.20
16663;DHT22;8445;51.270;9.434;2022-09-17T00:26:29;9.90;75.30
16663;DHT22;8445;51.270;9.434;2022-09-17T00:28:57;9.90;75.40
16663;DHT22;8445;51.270;9.434;2022-09-17T00:31:24;9.90;75.40
16663;DHT22;8445;51.270;9.434;2022-09-17T00:33:51;9.90;75.50
16663;DHT22;8445;51.270;9.434;2022-09-17T00:36:18;9.90;75.60
16663;DHT22;8445;51.270;9.434;2022-09-17T00:38:53;9.90;75.60
16663;DHT22;8445;51.270;9.434;2022-09-17T00:41:21;9.90;75.80
16663;DHT22;8445;51.270;9.434;2022-09-17T00:43:50;9.90;75.80
16663;DHT22;8445;51.270;9.434;2022-09-17T00:46:34;9.90;75.80
16663;DHT22;8445;51.270;9.434;2022-09-17T00:49:10;9.90;75.90
16663;DHT22;8445;51.270;9.434;2022-09-17T00:51:48;9.90;76.90
16663;DHT22;8445;51.270;9.434;2022-09-17T00:54:22;9.90;76.90
16663;DHT22;8445;51.270;9.434;2022-09-17T00:56:50;9.90;76.00
16663;DHT22;8445;51.270;9.434;2022-09-17T00:59:18;9.90;76.00
16663;DHT22;8445;51.270;9.434;2022-09-17T01:01:47;9.90;76.10
16663;DHT22;8445;51.270;9.434;2022-09-17T01:04:19;9.90;76.10
16663;DHT22;8445;51.270;9.434;2022-09-17T01:07:00;9.80;76.10
16663;DHT22;8445;51.270;9.434;2022-09-17T01:09:55;9.80;76.30
16663;DHT22;8445;51.270;9.434;2022-09-17T01:18:37;9.80;76.50
16663;DHT22;8445;51.270;9.434;2022-09-17T01:27:04;9.80;76.60
16663;DHT22;8445;51.270;9.434;2022-09-17T01:32:44;9.80;76.60
16663;DHT22;8445;51.270;9.434;2022-09-17T01:35:20;9.70;76.60
16663;DHT22;8445;51.270;9.434;2022-09-17T01:38:25;9.70;76.80
16663;DHT22;8445;51.270;9.434;2022-09-17T01:46:52;9.70;76.90
16663;DHT22;8445;51.270;9.434;2022-09-17T01:49:24;9.80;77.20
16663;DHT22;8445;51.270;9.434;2022-09-17T01:51:53;9.80;77.20
16663;DHT22;8445;51.270;9.434;2022-09-17T01:54:27;9.80;77.30
16663;DHT22;8445;51.270;9.434;2022-09-17T01:57:02;9.90;77.50
16663;DHT22;8445;51.270;9.434;2022-09-17T01:59:43;9.90;77.50
16663;DHT22;8445;51.270;9.434;2022-09-17T02:02:26;9.90;77.60
16663;DHT22;8445;51.270;9.434;2022-09-17T02:05:06;10.00;77.70
16663;DHT22;8445;51.270;9.434;2022-09-17T02:07:44;10.00;77.70
16663;DHT22;8445;51.270;9.434;2022-09-17T02:10:21;10.00;77.80
16663;DHT22;8445;51.270;9.434;2022-09-17T02:12:58;10.10;77.90
16663;DHT22;8445;51.270;9.434;2022-09-17T02:15:32;10.10;78.90
16663;DHT22;8445;51.270;9.434;2022-09-17T02:18:32;10.20;78.00
16663;DHT22;8445;51.270;9.434;2022-09-17T02:21:06;10.20;78.10
16663;DHT22;8445;51.270;9.434;2022-09-17T02:23:52;10.20;78.00
16663;DHT22;8445;51.270;9.434;2022-09-17T02:26:28;10.20;78.10
16663;DHT22;8445;51.270;9.434;2022-09-17T02:29:04;10.20;78.00
16663;DHT22;8445;51.270;9.434;2022-09-17T02:31:34;10.30;78.20
16663;DHT22;8445;51.270;9.434;2022-09-17T02:34:01;10.30;78.10
16663;DHT22;8445;51.270;9.434;2022-09-17T02:36:29;10.30;78.30
16663;DHT22;8445;51.270;9.434;2022-09-17T02:39:01;10.30;78.30
16663;DHT22;8445;51.270;9.434;2022-09-17T02:53:59;10.40;78.60
16663;DHT22;8445;51.270;9.434;2022-09-17T02:56:48;10.50;78.60
16663;DHT22;8445;51.270;9.434;2022-09-17T02:59:30;10.50;78.60
16663;DHT22;8445;51.270;9.434;2022-09-17T03:02:23;10.50;78.60
16663;DHT22;8445;51.270;9.434;2022-09-17T03:04:55;10.50;78.60
16663;DHT22;8445;51.270;9.434;2022-09-17T03:07:23;10.50;78.60
16663;DHT22;8445;51.270;9.434;2022-09-17T03:09:49;10.50;78.60
16663;DHT22;8445;51.270;9.434;2022-09-17T03:12:15;10.50;78.60
16663;DHT22;8445;51.270;9.434;2022-09-17T03:14:41;10.40;78.60
16663;DHT22;8445;51.270;9.434;2022-09-17T03:17:07;10.40;78.60
16663;DHT22;8445;51.270;9.434;2022-09-17T03:19:33;10.40;78.70
16663;DHT22;8445;51.270;9.434;2022-09-17T03:21:58;10.40;78.80
16663;DHT22;8445;51.270;9.434;2022-09-17T03:24:24;10.40;78.90
16663;DHT22;8445;51.270;9.434;2022-09-17T03:26:50;10.40;78.90
16663;DHT22;8445;51.270;9.434;2022-09-17T03:29:16;10.50;79.10
16663;DHT22;8445;51.270;9.434;2022-09-17T03:31:42;10.40;79.00
16663;DHT22;8445;51.270;9.434;2022-09-17T03:34:08;10.40;79.00
16663;DHT22;8445;51.270;9.434;2022-09-17T03:36:34;10.50;79.00
16663;DHT22;8445;51.270;9.434;2022-09-17T03:39:00;10.40;79.00
16663;DHT22;8445;51.270;9.434;2022-09-17T03:41:26;10.40;79.00
16663;DHT22;8445;51.270;9.434;2022-09-17T03:43:52;10.40;79.00
16663;DHT22;8445;51.270;9.434;2022-09-17T03:46:18;10.30;79.00
16663;DHT22;8445;51.270;9.434;2022-09-17T03:48:44;10.20;78.80
16663;DHT22;8445;51.270;9.434;2022-09-17T03:51:11;10.20;79.10
16663;DHT22;8445;51.270;9.434;2022-09-17T03:53:37;10.20;79.00
16663;DHT22;8445;51.270;9.434;2022-09-17T03:56:05;10.10;79.20
16663;DHT22;8445;51.270;9.434;2022-09-17T03:58:32;10.20;79.40
16663;DHT22;8445;51.270;9.434;2022-09-17T04:00:58;10.20;79.40
16663;DHT22;8445;51.270;9.434;2022-09-17T04:03:26;10.20;79.50
16663;DHT22;8445;51.270;9.434;2022-09-17T04:05:53;10.20;79.50
16663;DHT22;8445;51.270;9.434;2022-09-17T04:08:19;10.20;79.60
16663;DHT22;8445;51.270;9.434;2022-09-17T04:10:46;10.20;79.60
16663;DHT22;8445;51.270;9.434;2022-09-17T04:13:14;10.10;79.50
16663;DHT22;8445;51.270;9.434;2022-09-17T04:15:41;10.20;79.60
16663;DHT22;8445;51.270;9.434;2022-09-17T04:18:07;10.20;79.60
16663;DHT22;8445;51.270;9.434;2022-09-17T04:20:33;10.20;79.70
16663;DHT22;8445;51.270;9.434;2022-09-17T04:22:59;10.20;79.80
16663;DHT22;8445;51.270;9.434;2022-09-17T04:25:24;10.20;79.80
16663;DHT22;8445;51.270;9.434;2022-09-17T04:27:50;10.20;79.90
16663;DHT22;8445;51.270;9.434;2022-09-17T04:30:17;10.20;79.80
16663;DHT22;8445;51.270;9.434;2022-09-17T04:32:43;10.20;79.80
16663;DHT22;8445;51.270;9.434;2022-09-17T04:35:10;10.20;79.90
16663;DHT22;8445;51.270;9.434;2022-09-17T04:37:36;10.20;79.80
16663;DHT22;8445;51.270;9.434;2022-09-17T04:40:03;10.20;79.90
16663;DHT22;8445;51.270;9.434;2022-09-17T04:42:30;10.10;79.80
16663;DHT22;8445;51.270;9.434;2022-09-17T04:44:56;10.10;79.90
16663;DHT22;8445;51.270;9.434;2022-09-17T04:47:23;10.10;80.00
16663;DHT22;8445;51.270;9.434;2022-09-17T04:49:49;10.20;80.10
16663;DHT22;8445;51.270;9.434;2022-09-17T04:52:15;10.20;80.20
16663;DHT22;8445;51.270;9.434;2022-09-17T04:54:41;10.20;80.30
16663;DHT22;8445;51.270;9.434;2022-09-17T04:57:07;10.30;80.40
16663;DHT22;8445;51.270;9.434;2022-09-17T04:59:33;10.30;80.30
16663;DHT22;8445;51.270;9.434;2022-09-17T05:02:00;10.30;80.40
16663;DHT22;8445;51.270;9.434;2022-09-17T05:04:26;10.30;80.30
16663;DHT22;8445;51.270;9.434;2022-09-17T05:06:51;10.30;80.30
16663;DHT22;8445;51.270;9.434;2022-09-17T05:09:17;10.30;80.40
16663;DHT22;8445;51.270;9.434;2022-09-17T05:11:43;10.30;80.30
16663;DHT22;8445;51.270;9.434;2022-09-17T05:14:09;10.30;80.20
16663;DHT22;8445;51.270;9.434;2022-09-17T05:16:35;10.30;80.30
16663;DHT22;8445;51.270;9.434;2022-09-17T05:19:01;10.30;80.30
16663;DHT22;8445;51.270;9.434;2022-09-17T05:21:26;10.30;80.20
16663;DHT22;8445;51.270;9.434;2022-09-17T05:23:53;10.30;80.20
16663;DHT22;8445;51.270;9.434;2022-09-17T05:26:19;10.30;80.30
16663;DHT22;8445;51.270;9.434;2022-09-17T05:28:44;10.30;80.40
16663;DHT22;8445;51.270;9.434;2022-09-17T05:31:10;10.30;80.40
16663;DHT22;8445;51.270;9.434;2022-09-17T05:33:36;10.40;80.50
16663;DHT22;8445;51.270;9.434;2022-09-17T05:36:02;10.40;80.60
16663;DHT22;8445;51.270;9.434;2022-09-17T05:38:28;10.50;80.60
16663;DHT22;8445;51.270;9.434;2022-09-17T05:40:54;10.50;80.70
16663;DHT22;8445;51.270;9.434;2022-09-17T05:43:20;10.50;80.60
16663;DHT22;8445;51.270;9.434;2022-09-17T05:45:45;10.60;80.60
16663;DHT22;8445;51.270;9.434;2022-09-17T05:48:13;10.60;80.50
16663;DHT22;8445;51.270;9.434;2022-09-17T05:50:40;10.70;80.50
16663;DHT22;8445;51.270;9.434;2022-09-17T05:53:12;10.70;80.50
16663;DHT22;8445;51.270;9.434;2022-09-17T05:55:38;10.80;80.50
16663;DHT22;8445;51.270;9.434;2022-09-17T05:58:09;10.80;80.30
16663;DHT22;8445;51.270;9.434;2022-09-17T06:00:36;10.90;80.40
16663;DHT22;8445;51.270;9.434;2022-09-17T06:03:02;11.00;80.50
16663;DHT22;8445;51.270;9.434;2022-09-17T06:05:28;11.10;80.50
16663;DHT22;8445;51.270;9.434;2022-09-17T06:07:57;11.10;80.40
16663;DHT22;8445;51.270;9.434;2022-09-17T06:10:23;11.20;80.20
16663;DHT22;8445;51.270;9.434;2022-09-17T06:13:00;11.30;80.40
16663;DHT22;8445;51.270;9.434;2022-09-17T06:15:27;11.40;80.40
16663;DHT22;8445;51.270;9.434;2022-09-17T06:17:53;11.60;80.40
16663;DHT22;8445;51.270;9.434;2022-09-17T06:20:19;11.70;80.40
16663;DHT22;8445;51.270;9.434;2022-09-17T06:22:46;11.80;80.40
16663;DHT22;8445;51.270;9.434;2022-09-17T06:25:14;12.00;80.40
16663;DHT22;8445;51.270;9.434;2022-09-17T06:27:40;12.10;80.20
16663;DHT22;8445;51.270;9.434;2022-09-17T06:30:06;12.30;80.10
16663;DHT22;8445;51.270;9.434;2022-09-17T06:32:32;12.40;80.10
16663;DHT22;8445;51.270;9.434;2022-09-17T06:34:58;12.50;79.90
16663;DHT22;8445;51.270;9.434;2022-09-17T06:37:31;12.60;79.70
16663;DHT22;8445;51.270;9.434;2022-09-17T06:39:58;12.60;79.50
16663;DHT22;8445;51.270;9.434;2022-09-17T06:42:27;12.60;79.50
16663;DHT22;8445;51.270;9.434;2022-09-17T06:44:53;12.60;79.40
16663;DHT22;8445;51.270;9.434;2022-09-17T06:47:19;12.70;79.60
16663;DHT22;8445;51.270;9.434;2022-09-17T06:49:45;12.80;79.70
16663;DHT22;8445;51.270;9.434;2022-09-17T06:52:11;12.80;79.50
16663;DHT22;8445;51.270;9.434;2022-09-17T06:54:37;12.90;79.60
16663;DHT22;8445;51.270;9.434;2022-09-17T06:57:03;13.00;79.70
16663;DHT22;8445;51.270;9.434;2022-09-17T06:59:30;13.30;80.20
16663;DHT22;8445;51.270;9.434;2022-09-17T07:01:56;13.70;80.10
16663;DHT22;8445;51.270;9.434;2022-09-17T07:04:22;13.90;79.70
16663;DHT22;8445;51.270;9.434;2022-09-17T07:06:48;14.00;79.40
16663;DHT22;8445;51.270;9.434;2022-09-17T07:09:13;14.30;79.70
16663;DHT22;8445;51.270;9.434;2022-09-17T07:11:39;14.50;79.10
16663;DHT22;8445;51.270;9.434;2022-09-17T07:14:05;14.60;79.00
16663;DHT22;8445;51.270;9.434;2022-09-17T07:16:31;14.70;78.70
16663;DHT22;8445;51.270;9.434;2022-09-17T07:18:59;14.90;78.80
16663;DHT22;8445;51.270;9.434;2022-09-17T07:21:25;15.00;78.80
16663;DHT22;8445;51.270;9.434;2022-09-17T07:23:51;15.10;78.60
16663;DHT22;8445;51.270;9.434;2022-09-17T07:26:17;14.90;78.00
16663;DHT22;8445;51.270;9.434;2022-09-17T07:28:43;14.80;78.30
16663;DHT22;8445;51.270;9.434;2022-09-17T07:31:10;15.00;78.90
16663;DHT22;8445;51.270;9.434;2022-09-17T07:33:37;15.20;78.90
16663;DHT22;8445;51.270;9.434;2022-09-17T07:36:10;15.40;78.70
16663;DHT22;8445;51.270;9.434;2022-09-17T07:38:37;15.30;78.10
16663;DHT22;8445;51.270;9.434;2022-09-17T07:41:10;15.10;78.00
16663;DHT22;8445;51.270;9.434;2022-09-17T07:43:37;14.90;77.50
16663;DHT22;8445;51.270;9.434;2022-09-17T07:46:05;14.70;77.50
16663;DHT22;8445;51.270;9.434;2022-09-17T07:48:33;14.50;77.30
16663;DHT22;8445;51.270;9.434;2022-09-17T07:50:59;14.30;77.40
16663;DHT22;8445;51.270;9.434;2022-09-17T07:53:25;14.10;77.70
16663;DHT22;8445;51.270;9.434;2022-09-17T07:55:58;14.10;78.10
16663;DHT22;8445;51.270;9.434;2022-09-17T07:58:32;14.10;78.10
16663;DHT22;8445;51.270;9.434;2022-09-17T08:01:05;14.20;78.40
16663;DHT22;8445;51.270;9.434;2022-09-17T08:03:37;14.30;78.30
16663;DHT22;8445;51.270;9.434;2022-09-17T08:06:06;14.50;78.80
16663;DHT22;8445;51.270;9.434;2022-09-17T08:08:37;14.90;78.90
16663;DHT22;8445;51.270;9.434;2022-09-17T08:11:12;15.10;78.50
16663;DHT22;8445;51.270;9.434;2022-09-17T08:13:40;15.10;78.10
16663;DHT22;8445;51.270;9.434;2022-09-17T08:19:17;15.30;77.60
16663;DHT22;8445;51.270;9.434;2022-09-17T08:21:43;15.20;77.50
16663;DHT22;8445;51.270;9.434;2022-09-17T08:24:09;15.10;77.40
16663;DHT22;8445;51.270;9.434;2022-09-17T08:26:35;15.10;77.50
16663;DHT22;8445;51.270;9.434;2022-09-17T08:29:01;15.20;77.90
16663;DHT22;8445;51.270;9.434;2022-09-17T08:31:27;15.40;77.80
16663;DHT22;8445;51.270;9.434;2022-09-17T08:33:54;15.60;78.80
16663;DHT22;8445;51.270;9.434;2022-09-17T08:36:20;15.90;77.90
16663;DHT22;8445;51.270;9.434;2022-09-17T08:38:54;16.30;77.90
16663;DHT22;8445;51.270;9.434;2022-09-17T08:44:25;16.40;76.70
16663;DHT22;8445;51.270;9.434;2022-09-17T08:47:07;16.70;77.00
16663;DHT22;8445;51.270;9.434;2022-09-17T08:49:41;17.00;77.00
16663;DHT22;8445;51.270;9.434;2022-09-17T09:14:22;17.30;77.10
16663;DHT22;8445;51.270;9.434;2022-09-17T09:16:53;16.60;75.10
16663;DHT22;8445;51.270;9.434;2022-09-17T09:19:29;16.30;74.80
16663;DHT22;8445;51.270;9.434;2022-09-17T09:28:12;15.80;74.90
16663;DHT22;8445;51.270;9.434;2022-09-17T09:33:34;15.40;75.20
16663;DHT22;8445;51.270;9.434;2022-09-17T09:36:07;15.30;75.30
16663;DHT22;8445;51.270;9.434;2022-09-17T09:39:02;15.50;76.10
16663;DHT22;8445;51.270;9.434;2022-09-17T09:41:50;15.70;76.00
16663;DHT22;8445;51.270;9.434;2022-09-17T09:44:30;15.90;75.70
16663;DHT22;8445;51.270;9.434;2022-09-17T09:47:16;15.90;75.60
16663;DHT22;8445;51.270;9.434;2022-09-17T09:56:16;16.10;75.50
16663;DHT22;8445;51.270;9.434;2022-09-17T09:59:13;16.20;75.10
16663;DHT22;8445;51.270;9.434;2022-09-17T10:01:41;16.30;75.30
16663;DHT22;8445;51.270;9.434;2022-09-17T10:04:25;16.50;75.10
16663;DHT22;8445;51.270;9.434;2022-09-17T10:06:59;16.50;74.80
16663;DHT22;8445;51.270;9.434;2022-09-17T10:09:28;16.70;74.50
16663;DHT22;8445;51.270;9.434;2022-09-17T10:14:40;16.20;73.40
16663;DHT22;8445;51.270;9.434;2022-09-17T10:17:22;16.00;73.60
16663;DHT22;8445;51.270;9.434;2022-09-17T10:22:46;16.00;74.30
16663;DHT22;8445;51.270;9.434;2022-09-17T10:25:30;16.00;74.20
16663;DHT22;8445;51.270;9.434;2022-09-17T10:28:01;16.00;73.70
16663;DHT22;8445;51.270;9.434;2022-09-17T10:30:30;16.00;73.90
16663;DHT22;8445;51.270;9.434;2022-09-17T10:33:20;16.00;73.70
16663;DHT22;8445;51.270;9.434;2022-09-17T10:38:30;15.90;73.00
16663;DHT22;8445;51.270;9.434;2022-09-17T10:41:18;15.70;72.80
16663;DHT22;8445;51.270;9.434;2022-09-17T10:43:48;15.60;73.00
16663;DHT22;8445;51.270;9.434;2022-09-17T10:46:26;15.70;73.40
16663;DHT22;8445;51.270;9.434;2022-09-17T10:49:33;15.90;73.80
16663;DHT22;8445;51.270;9.434;2022-09-17T11:13:06;16.80;72.60
16663;DHT22;8445;51.270;9.434;2022-09-17T11:19:23;16.60;71.20
16663;DHT22;8445;51.270;9.434;2022-09-17T11:31:20;17.20;72.90
16663;DHT22;8445;51.270;9.434;2022-09-17T11:37:37;17.80;70.80
16663;DHT22;8445;51.270;9.434;2022-09-17T11:40:25;17.70;71.00
16663;DHT22;8445;51.270;9.434;2022-09-17T11:43:46;17.70;71.10
16663;DHT22;8445;51.270;9.434;2022-09-17T11:46:36;17.40;69.90
16663;DHT22;8445;51.270;9.434;2022-09-17T11:49:33;16.80;69.80
16663;DHT22;8445;51.270;9.434;2022-09-17T11:52:20;16.40;70.10
16663;DHT22;8445;51.270;9.434;2022-09-17T11:55:25;15.90;69.00
16663;DHT22;8445;51.270;9.434;2022-09-17T12:01:44;14.60;69.50
16663;DHT22;8445;51.270;9.434;2022-09-17T12:07:38;14.30;70.10
16663;DHT22;8445;51.270;9.434;2022-09-17T12:11:06;13.90;69.80
16663;DHT22;8445;51.270;9.434;2022-09-17T12:13:55;13.60;70.60
16663;DHT22;8445;51.270;9.434;2022-09-17T12:16:35;14.00;71.50
16663;DHT22;8445;51.270;9.434;2022-09-17T12:21:42;14.10;70.20
16663;DHT22;8445;51.270;9.434;2022-09-17T12:24:24;14.00;70.30
16663;DHT22;8445;51.270;9.434;2022-09-17T12:27:12;13.80;70.70
16663;DHT22;8445;51.270;9.434;2022-09-17T12:35:16;14.60;72.70
16663;DHT22;8445;51.270;9.434;2022-09-17T12:44:36;16.50;72.10
16663;DHT22;8445;51.270;9.434;2022-09-17T12:54:14;18.30;73.20
16663;DHT22;8445;51.270;9.434;2022-09-17T12:59:52;20.10;70.40
16663;DHT22;8445;51.270;9.434;2022-09-17T13:09:06;18.50;67.50
16663;DHT22;8445;51.270;9.434;2022-09-17T13:11:50;18.00;68.50
16663;DHT22;8445;51.270;9.434;2022-09-17T13:18:22;17.50;69.60
16663;DHT22;8445;51.270;9.434;2022-09-17T13:21:40;17.10;69.50
16663;DHT22;8445;51.270;9.434;2022-09-17T13:24:23;16.90;69.90
16663;DHT22;8445;51.270;9.434;2022-09-17T13:26:59;17.10;70.70
16663;DHT22;8445;51.270;9.434;2022-09-17T13:38:01;17.90;70.00
16663;DHT22;8445;51.270;9.434;2022-09-17T13:40:31;18.20;70.40
16663;DHT22;8445;51.270;9.434;2022-09-17T13:43:12;18.30;70.10
16663;DHT22;8445;51.270;9.434;2022-09-17T13:48:32;17.90;68.10
16663;DHT22;8445;51.270;9.434;2022-09-17T13:55:55;17.40;69.10
16663;DHT22;8445;51.270;9.434;2022-09-17T13:58:44;18.00;70.00
16663;DHT22;8445;51.270;9.434;2022-09-17T14:01:13;18.20;69.30
16663;DHT22;8445;51.270;9.434;2022-09-17T14:10:01;18.60;68.60
16663;DHT22;8445;51.270;9.434;2022-09-17T14:12:53;18.60;68.50
16663;DHT22;8445;51.270;9.434;2022-09-17T14:22:35;18.40;69.00
16663;DHT22;8445;51.270;9.434;2022-09-17T14:25:13;18.70;69.00
16663;DHT22;8445;51.270;9.434;2022-09-17T14:54:28;16.30;67.80
16663;DHT22;8445;51.270;9.434;2022-09-17T14:57:01;15.90;67.60
16663;DHT22;8445;51.270;9.434;2022-09-17T14:59:43;15.20;66.30
16663;DHT22;8445;51.270;9.434;2022-09-17T15:05:00;12.60;64.80
16663;DHT22;8445;51.270;9.434;2022-09-17T15:07:28;11.80;65.70
16663;DHT22;8445;51.270;9.434;2022-09-17T15:10:06;11.30;66.80
16663;DHT22;8445;51.270;9.434;2022-09-17T15:12:39;11.40;68.70
16663;DHT22;8445;51.270;9.434;2022-09-17T15:15:09;11.60;69.30
16663;DHT22;8445;51.270;9.434;2022-09-17T15:17:43;11.90;69.40
16663;DHT22;8445;51.270;9.434;2022-09-17T15:20:19;12.10;69.10
16663;DHT22;8445;51.270;9.434;2022-09-17T15:23:16;12.10;68.80
16663;DHT22;8445;51.270;9.434;2022-09-17T15:25:49;11.90;68.60
16663;DHT22;8445;51.270;9.434;2022-09-17T15:28:33;11.70;68.60
16663;DHT22;8445;51.270;9.434;2022-09-17T15:31:16;11.60;68.90
16663;DHT22;8445;51.270;9.434;2022-09-17T15:33:45;11.50;69.30
16663;DHT22;8445;51.270;9.434;2022-09-17T15:36:23;11.40;69.30
16663;DHT22;8445;51.270;9.434;2022-09-17T15:38:53;11.50;69.70
16663;DHT22;8445;51.270;9.434;2022-09-17T15:41:53;11.50;69.70
16663;DHT22;8445;51.270;9.434;2022-09-17T15:44:25;11.50;69.90
16663;DHT22;8445;51.270;9.434;2022-09-17T15:46:54;11.50;69.80
16663;DHT22;8445;51.270;9.434;2022-09-17T15:49:33;11.40;69.80
16663;DHT22;8445;51.270;9.434;2022-09-17T15:52:34;11.40;70.20
16663;DHT22;8445;51.270;9.434;2022-09-17T15:55:00;11.40;70.40
16663;DHT22;8445;51.270;9.434;2022-09-17T15:57:28;11.30;70.10
16663;DHT22;8445;51.270;9.434;2022-09-17T16:00:05;11.30;70.20
16663;DHT22;8445;51.270;9.434;2022-09-17T16:02:37;11.30;70.50
16663;DHT22;8445;51.270;9.434;2022-09-17T16:07:46;11.10;70.70
16663;DHT22;8445;51.270;9.434;2022-09-17T16:10:14;11.10;70.70
16663;DHT22;8445;51.270;9.434;2022-09-17T16:12:40;11.00;70.70
16663;DHT22;8445;51.270;9.434;2022-09-17T16:15:06;10.80;70.80
16663;DHT22;8445;51.270;9.434;2022-09-17T16:22:40;10.50;71.20
16663;DHT22;8445;51.270;9.434;2022-09-17T16:25:06;10.50;71.30
16663;DHT22;8445;51.270;9.434;2022-09-17T16:27:45;10.40;71.50
16663;DHT22;8445;51.270;9.434;2022-09-17T16:30:16;10.30;71.60
16663;DHT22;8445;51.270;9.434;2022-09-17T16:32:44;10.20;71.60
16663;DHT22;8445;51.270;9.434;2022-09-17T16:35:12;10.10;71.60
16663;DHT22;8445;51.270;9.434;2022-09-17T16:37:43;10.10;71.80
16663;DHT22;8445;51.270;9.434;2022-09-17T16:40:12;10.00;71.90
16663;DHT22;8445;51.270;9.434;2022-09-17T16:42:38;10.00;72.00
16663;DHT22;8445;51.270;9.434;2022-09-17T16:45:05;9.90;72.10
16663;DHT22;8445;51.270;9.434;2022-09-17T16:47:37;9.80;72.10
16663;DHT22;8445;51.270;9.434;2022-09-17T16:50:06;9.80;72.30
16663;DHT22;8445;51.270;9.434;2022-09-17T16:52:34;9.70;72.40
16663;DHT22;8445;51.270;9.434;2022-09-17T16:55:02;9.70;72.50
16663;DHT22;8445;51.270;9.434;2022-09-17T16:57:30;9.70;72.60
16663;DHT22;8445;51.270;9.434;2022-09-17T16:59:57;9.60;72.60
16663;DHT22;8445;51.270;9.434;2022-09-17T17:02:23;9.50;72.60
16663;DHT22;8445;51.270;9.434;2022-09-17T17:04:49;9.50;72.80
16663;DHT22;8445;51.270;9.434;2022-09-17T17:07:15;9.40;72.80
16663;DHT22;8445;51.270;9.434;2022-09-17T17:09:41;9.40;72.90
16663;DHT22;8445;51.270;9.434;2022-09-17T17:12:07;9.40;73.00
16663;DHT22;8445;51.270;9.434;2022-09-17T17:14:33;9.30;73.00
16663;DHT22;8445;51.270;9.434;2022-09-17T17:16:59;9.30;73.10
16663;DHT22;8445;51.270;9.434;2022-09-17T17:19:25;9.20;73.10
16663;DHT22;8445;51.270;9.434;2022-09-17T17:21:51;9.20;73.40
16663;DHT22;8445;51.270;9.434;2022-09-17T17:24:17;9.20;73.60
16663;DHT22;8445;51.270;9.434;2022-09-17T17:26:46;9.20;73.80
16663;DHT22;8445;51.270;9.434;2022-09-17T17:29:13;9.20;74.10
16663;DHT22;8445;51.270;9.434;2022-09-17T17:31:40;9.30;74.40
16663;DHT22;8445;51.270;9.434;2022-09-17T17:34:06;9.30;74.50
16663;DHT22;8445;51.270;9.434;2022-09-17T17:36:32;9.40;74.70
16663;DHT22;8445;51.270;9.434;2022-09-17T17:38:59;9.40;74.60
16663;DHT22;8445;51.270;9.434;2022-09-17T17:41:26;9.40;74.50
16663;DHT22;8445;51.270;9.434;2022-09-17T17:43:53;9.30;74.30
16663;DHT22;8445;51.270;9.434;2022-09-17T17:46:20;9.30;74.30
16663;DHT22;8445;51.270;9.434;2022-09-17T17:48:48;9.20;74.20
16663;DHT22;8445;51.270;9.434;2022-09-17T17:51:14;9.10;74.00
16663;DHT22;8445;51.270;9.434;2022-09-17T17:53:43;8.90;73.70
16663;DHT22;8445;51.270;9.434;2022-09-17T17:56:10;8.80;73.60
16663;DHT22;8445;51.270;9.434;2022-09-17T17:58:37;8.60;73.50
16663;DHT22;8445;51.270;9.434;2022-09-17T18:01:19;8.40;73.40
16663;DHT22;8445;51.270;9.434;2022-09-17T18:03:47;8.20;73.60
16663;DHT22;8445;51.270;9.434;2022-09-17T18:06:15;8.00;73.60
16663;DHT22;8445;51.270;9.434;2022-09-17T18:08:42;7.90;73.60
16663;DHT22;8445;51.270;9.434;2022-09-17T18:11:09;7.80;73.80
16663;DHT22;8445;51.270;9.434;2022-09-17T18:13:37;7.60;73.90
16663;DHT22;8445;51.270;9.434;2022-09-17T18:16:05;7.50;74.10
16663;DHT22;8445;51.270;9.434;2022-09-17T18:18:38;7.50;74.30
16663;DHT22;8445;51.270;9.434;2022-09-17T18:21:08;7.40;74.40
16663;DHT22;8445;51.270;9.434;2022-09-17T18:23:37;7.40;74.60
16663;DHT22;8445;51.270;9.434;2022-09-17T18:26:08;7.40;74.80
16663;DHT22;8445;51.270;9.434;2022-09-17T18:28:37;7.40;74.90
16663;DHT22;8445;51.270;9.434;2022-09-17T18:31:24;7.40;75.00
16663;DHT22;8445;51.270;9.434;2022-09-17T18:33:59;7.40;75.20
16663;DHT22;8445;51.270;9.434;2022-09-17T18:36:30;7.40;75.10
16663;DHT22;8445;51.270;9.434;2022-09-17T18:39:02;7.40;75.10
16663;DHT22;8445;51.270;9.434;2022-09-17T18:41:31;7.40;75.20
16663;DHT22;8445;51.270;9.434;2022-09-17T18:43:58;7.40;75.20
16663;DHT22;8445;51.270;9.434;2022-09-17T18:46:28;7.40;75.40
16663;DHT22;8445;51.270;9.434;2022-09-17T18:48:56;7.50;75.60
16663;DHT22;8445;51.270;9.434;2022-09-17T18:51:24;7.50;75.70
16663;DHT22;8445;51.270;9.434;2022-09-17T18:53:51;7.50;75.70
16663;DHT22;8445;51.270;9.434;2022-09-17T18:56:29;7.60;76.10
16663;DHT22;8445;51.270;9.434;2022-09-17T18:58:58;7.60;76.10
16663;DHT22;8445;51.270;9.434;2022-09-17T19:01:29;7.70;76.20
16663;DHT22;8445;51.270;9.434;2022-09-17T19:03:57;7.70;76.30
16663;DHT22;8445;51.270;9.434;2022-09-17T19:06:27;7.80;76.20
16663;DHT22;8445;51.270;9.434;2022-09-17T19:08:53;7.80;76.20
16663;DHT22;8445;51.270;9.434;2022-09-17T19:11:26;7.80;76.10
16663;DHT22;8445;51.270;9.434;2022-09-17T19:13:52;7.80;76.10
16663;DHT22;8445;51.270;9.434;2022-09-17T19:16:41;7.80;76.20
16663;DHT22;8445;51.270;9.434;2022-09-17T19:19:06;7.80;76.30
16663;DHT22;8445;51.270;9.434;2022-09-17T19:21:32;7.80;76.30
16663;DHT22;8445;51.270;9.434;2022-09-17T19:23:58;7.80;76.30
16663;DHT22;8445;51.270;9.434;2022-09-17T19:26:25;7.90;76.50
16663;DHT22;8445;51.270;9.434;2022-09-17T19:28:56;7.90;76.60
16663;DHT22;8445;51.270;9.434;2022-09-17T19:31:25;7.90;76.60
16663;DHT22;8445;51.270;9.434;2022-09-17T19:33:52;7.90;76.70
16663;DHT22;8445;51.270;9.434;2022-09-17T19:36:18;7.90;76.80
16663;DHT22;8445;51.270;9.434;2022-09-17T19:38:45;8.00;76.90
16663;DHT22;8445;51.270;9.434;2022-09-17T19:41:14;8.00;77.00
16663;DHT22;8445;51.270;9.434;2022-09-17T19:43:42;8.10;77.30
16663;DHT22;8445;51.270;9.434;2022-09-17T19:46:13;8.20;77.40
16663;DHT22;8445;51.270;9.434;2022-09-17T19:48:48;8.30;77.50
16663;DHT22;8445;51.270;9.434;2022-09-17T19:51:16;8.40;77.40
16663;DHT22;8445;51.270;9.434;2022-09-17T19:53:42;8.50;77.20
16663;DHT22;8445;51.270;9.434;2022-09-17T19:56:14;8.40;77.00
16663;DHT22;8445;51.270;9.434;2022-09-17T19:58:41;8.40;76.90
16663;DHT22;8445;51.270;9.434;2022-09-17T20:01:08;8.30;76.90
16663;DHT22;8445;51.270;9.434;2022-09-17T20:03:34;8.30;76.90
16663;DHT22;8445;51.270;9.434;2022-09-17T20:06:04;8.30;77.00
16663;DHT22;8445;51.270;9.434;2022-09-17T20:08:32;8.20;77.00
16663;DHT22;8445;51.270;9.434;2022-09-17T20:11:06;8.20;77.00